GVACGOOY

Guest
Details From GVAC - Sal Amilcar Cabral Intl
To GOOY - Dakar Leopold Sedar Senghor Intl
Flight Number -
Tags generated
Created
Modified
Stats Distance 338 nm / 625 km
Max Altitude 33,400 ft / 10,180 m
Waypoints 5
Social Downloads 0
Likes 0
Share VATSIM

Download

Looking for another format? Having issues loading an existing format? Contact us
Advertisement - Login to hide

Notes

Basic altitude profile: - Ascent Rate: 2500ft/min - Ascent Speed: 250kts - Cruise Altitude: 35000ft - Cruise Speed: 420kts - Descent Rate: 1500ft/min - Descent Speed: 250kts Options: - Use NATs: no - Use PACOTS: no - Use low airways: yes - Use high airways: yes

Route

GVAC UGAMA UR976 NARAT GOOY

ID Type Via Altitude (ft/m) Position (lat/lon) Dist (leg/tot) Name
O GVAC APT - 0 / 0 16.73821 / -22.95050 - / 0 nm Sal Amilcar Cabral Intl
UGAMA FIX - 27,000 / 8,230 16.28667 / -21.67000 78 / 78 nm
LUMPO FIX UR976 (AWY-HI) 33,400 / 10,180 15.68000 / -20.00139 102 / 181 nm
NARAT FIX UR976 (AWY-HI) 23,500 / 7,163 14.94333 / -18.00000 124 / 305 nm
O GOOY APT - 0 / 0 14.73971 / -17.49023 32 / 337 nm Dakar Leopold Sedar Senghor Intl

Altitude Profile

Advertisement - Login to hide

Weather


0- 5 10 15 20 25 30 35+ Temperature / °C

Clouds and Precipitation
Forecast for 2018-12-16 18:00 UTC. Updated 2 hours ago

Ground ~20,000 ft ~40,000 ft Winds

GVAC

Details ICAO GVAC (SID)
Name Sal Amilcar Cabral Intl
Region Cape Verde
Timezone Atlantic/Cape_Verde (UTC-1.0)
Stats Elevation 184 ft / 56 m (AMSL)
Location 16.737600° -22.950000°
Runways 1
Magnetic Variation 9.122° W

METAR

GVAC 161700Z 06014KT 9999 BKN014 24/17 Q1018 NOSIG

Decode

TAF

TAF GVAC 161100Z 1612/1718 05016KT 9999 SCT014 TEMPO 1622/1708 04006KT BKN014

Decode

Departure Runways

ID Width Length Bearing (true/mag) Surface Threshold Overrun Markings Lighting
01 148 ft / 45 m 9,852 ft / 3,003 m 359.64° / 8.76° ASPHALT 0 ft / 0 m 0 ft / 0 m APP CENTERLINE EDGE THRESHOLD MALSF
19 148 ft / 45 m 9,852 ft / 3,003 m 179.64° / 188.76° ASPHALT 0 ft / 0 m 0 ft / 0 m APP CENTERLINE EDGE THRESHOLD MALSF

GOOY

Details ICAO GOOY (DKR)
Name Dakar - Leopold Sedar Senghor Intl
Region Senegal
Timezone Africa/Dakar (UTC+0.0)
Stats Elevation 84 ft / 26 m (AMSL)
Location 14.740100° -17.490400°
Runways 2
Magnetic Variation 7.233° W

METAR

GOOY 161700Z 36012KT CAVOK 25/18 Q1015

Decode

TAF

TAF GOOY 161130Z 1612/1718 01010KT CAVOK= TAF GOBD 161130Z 1612/1718 02012KT CAVOK

Decode

Destination Runways

ID Width Length Bearing (true/mag) Surface Threshold Overrun Markings Lighting
03 98 ft / 30 m 4,916 ft / 1,498 m 22.33° / 29.56° ASPHALT 0 ft / 0 m 98 ft / 30 m APP
18 148 ft / 45 m 11,483 ft / 3,500 m 172.61° / 179.84° ASPHALT 525 ft / 160 m 220 ft / 67 m APP EDGE THRESHOLD
21 98 ft / 30 m 4,916 ft / 1,498 m 202.33° / 209.56° ASPHALT 0 ft / 0 m 1,591 ft / 485 m APP
36 148 ft / 45 m 11,483 ft / 3,500 m 352.61° / 359.84° ASPHALT 0 ft / 0 m 213 ft / 65 m PREC-APP EDGE THRESHOLD ALSF-I

Approach Navaids

Runway Type Ident Frequency Range Bearing (true/mag) Slope Elevation
36 GS YF 110.30 MHz 10 nm / 19 km 353.14° / 0.38 ° 3.01° 73 ft / 22 m (AMSL)
36 MM MM - - 352.57° / 359.81 ° - 144 ft / 44 m (AMSL)
36 DME YF 110.30 MHz 18 nm / 33 km - - 73 ft / 22 m (AMSL)
36 LOC-ILS YF 110.30 MHz 18 nm / 33 km 352.33° / 359.56 ° - 65 ft / 20 m (AMSL)

Popular Alternatives